createdAt,value
2023-01-27T00:00:29.339Z,1.10
2023-01-27T00:02:56.089Z,1.16
2023-01-27T00:05:22.789Z,1.05
2023-01-27T00:07:49.815Z,1.10
2023-01-27T00:10:20.413Z,1.04
2023-01-27T00:13:06.509Z,1.01
2023-01-27T00:15:34.331Z,1.07
2023-01-27T00:18:01.793Z,1.17
2023-01-27T00:20:47.235Z,1.06
2023-01-27T00:23:34.492Z,1.01
2023-01-27T00:26:06.607Z,1.15
2023-01-27T00:28:37.144Z,1.20
2023-01-27T00:31:04.588Z,1.20
2023-01-27T00:33:31.682Z,1.20
2023-01-27T00:35:58.813Z,1.10
2023-01-27T00:38:27.496Z,1.07
2023-01-27T00:41:12.750Z,1.08
2023-01-27T00:43:39.372Z,1.14
2023-01-27T00:46:06.060Z,1.07
2023-01-27T00:48:32.784Z,1.18
2023-01-27T00:50:59.500Z,1.04
2023-01-27T00:53:26.512Z,0.92
2023-01-27T00:55:53.109Z,0.96
2023-01-27T00:58:20.230Z,0.96
2023-01-27T01:00:46.889Z,0.98
2023-01-27T01:03:13.525Z,0.94
2023-01-27T01:05:40.164Z,0.86
2023-01-27T01:08:06.886Z,0.84
2023-01-27T01:10:33.440Z,0.85
2023-01-27T01:12:59.991Z,0.95
2023-01-27T01:15:26.749Z,0.89
2023-01-27T01:17:53.375Z,0.93
2023-01-27T01:20:21.432Z,1.04
2023-01-27T01:22:48.116Z,0.91
2023-01-27T01:25:14.810Z,0.96
2023-01-27T01:27:44.743Z,0.95
2023-01-27T01:30:12.571Z,0.93
2023-01-27T01:32:39.373Z,0.95
2023-01-27T01:35:06.363Z,1.04
2023-01-27T01:37:32.947Z,0.98
2023-01-27T01:39:59.562Z,1.02
2023-01-27T01:42:26.304Z,0.99
2023-01-27T01:45:31.631Z,1.00
2023-01-27T01:48:00.156Z,0.95
2023-01-27T01:50:27.503Z,0.98
2023-01-27T01:52:54.563Z,0.97
2023-01-27T01:55:21.680Z,1.00
2023-01-27T01:57:48.823Z,0.96
2023-01-27T02:00:16.115Z,0.99
2023-01-27T02:02:46.802Z,1.06
2023-01-27T02:05:24.445Z,1.04
2023-01-27T02:07:57.891Z,1.01
2023-01-27T02:10:25.169Z,1.06
2023-01-27T02:12:51.858Z,1.07
2023-01-27T02:15:18.959Z,1.18
2023-01-27T02:17:45.669Z,1.19
2023-01-27T02:20:31.861Z,1.16
2023-01-27T02:23:20.740Z,1.23
2023-01-27T02:25:59.128Z,1.22
2023-01-27T02:28:30.667Z,1.27
2023-01-27T02:30:57.692Z,1.20
2023-01-27T02:33:24.921Z,1.33
2023-01-27T02:36:18.218Z,1.23
2023-01-27T02:38:53.373Z,1.31
2023-01-27T02:41:31.742Z,1.29
2023-01-27T02:44:00.084Z,1.31
2023-01-27T02:46:27.020Z,1.38
2023-01-27T02:48:54.052Z,1.33
2023-01-27T02:51:20.692Z,1.36
2023-01-27T02:53:47.734Z,1.30
2023-01-27T02:56:14.388Z,1.40
2023-01-27T02:58:42.140Z,1.36
2023-01-27T03:01:13.514Z,1.44
2023-01-27T03:03:44.228Z,1.41
2023-01-27T03:06:11.289Z,1.44
2023-01-27T03:08:38.189Z,1.34
2023-01-27T03:11:05.921Z,1.36
2023-01-27T03:13:32.752Z,1.34
2023-01-27T03:16:19.249Z,1.38
2023-01-27T03:18:47.389Z,1.42
2023-01-27T03:21:14.478Z,1.53
2023-01-27T03:23:41.532Z,1.53
2023-01-27T03:26:09.740Z,1.48
2023-01-27T03:28:39.071Z,1.50
2023-01-27T03:31:19.449Z,1.69
2023-01-27T03:33:53.745Z,1.44
2023-01-27T03:36:52.043Z,1.51
2023-01-27T03:39:37.103Z,1.54
2023-01-27T03:42:22.379Z,1.53
2023-01-27T03:45:09.649Z,1.50
2023-01-27T03:47:36.359Z,1.61
2023-01-27T03:50:02.950Z,1.61
2023-01-27T03:52:29.692Z,1.51
2023-01-27T03:54:56.299Z,1.51
2023-01-27T03:57:22.884Z,1.60
2023-01-27T03:59:49.489Z,1.63
2023-01-27T04:02:34.524Z,1.61
2023-01-27T04:05:19.795Z,1.63
2023-01-27T04:07:46.421Z,1.74
2023-01-27T04:10:13.038Z,1.74
2023-01-27T04:12:39.620Z,1.67
2023-01-27T04:15:06.986Z,1.69
2023-01-27T04:17:38.799Z,1.62
2023-01-27T04:20:06.137Z,1.64
2023-01-27T04:22:32.762Z,1.64
2023-01-27T04:24:59.452Z,1.55
2023-01-27T04:27:27.369Z,1.70
2023-01-27T04:29:53.990Z,1.69
2023-01-27T04:32:20.717Z,1.69
2023-01-27T04:34:47.265Z,1.72
2023-01-27T04:37:13.918Z,1.68
2023-01-27T04:39:41.955Z,1.70
2023-01-27T04:42:08.621Z,1.65
2023-01-27T04:44:35.231Z,1.73
2023-01-27T04:47:01.865Z,1.70
2023-01-27T04:49:28.557Z,1.72
2023-01-27T04:51:55.606Z,1.64
2023-01-27T04:54:22.354Z,1.62
2023-01-27T04:57:00.345Z,1.68
2023-01-27T04:59:27.190Z,1.61
2023-01-27T05:01:53.904Z,1.65
2023-01-27T05:04:20.546Z,1.65
2023-01-27T05:06:47.124Z,1.60
2023-01-27T05:09:13.856Z,1.69
2023-01-27T05:11:40.419Z,1.65
2023-01-27T05:14:06.956Z,1.59
2023-01-27T05:16:33.594Z,1.65
2023-01-27T05:19:00.298Z,1.70
2023-01-27T05:21:28.421Z,1.64
2023-01-27T05:23:55.143Z,1.66
2023-01-27T05:26:26.715Z,1.64
2023-01-27T05:28:54.145Z,1.78
2023-01-27T05:31:26.836Z,1.65
2023-01-27T05:33:54.814Z,1.72
2023-01-27T05:36:22.862Z,1.72
2023-01-27T05:38:49.865Z,1.77
2023-01-27T05:41:17.710Z,1.70
2023-01-27T05:43:45.721Z,1.71
2023-01-27T05:46:18.034Z,1.71
2023-01-27T05:48:56.377Z,1.78
2023-01-27T05:51:24.925Z,1.76
2023-01-27T05:53:52.274Z,1.68
2023-01-27T05:56:19.668Z,1.79
2023-01-27T05:58:46.460Z,1.77
2023-01-27T06:01:21.052Z,1.92
2023-01-27T06:03:48.442Z,1.77
2023-01-27T06:06:16.885Z,1.75
2023-01-27T06:08:43.647Z,1.85
2023-01-27T06:11:10.276Z,1.74
2023-01-27T06:13:38.734Z,1.79
2023-01-27T06:16:11.140Z,1.80
2023-01-27T06:18:38.314Z,1.78
2023-01-27T06:21:07.112Z,1.73
2023-01-27T06:23:34.189Z,1.70
2023-01-27T06:26:03.499Z,1.77
2023-01-27T06:28:30.611Z,1.73
2023-01-27T06:31:05.108Z,1.73
2023-01-27T06:33:32.019Z,1.78
2023-01-27T06:36:07.456Z,1.71
2023-01-27T06:38:34.883Z,1.71
2023-01-27T06:41:01.581Z,1.70
2023-01-27T06:43:28.541Z,1.84
2023-01-27T06:45:57.456Z,1.69
2023-01-27T06:48:24.866Z,1.71
2023-01-27T06:50:53.113Z,1.78
2023-01-27T06:53:19.857Z,1.74
2023-01-27T06:55:46.413Z,1.70
2023-01-27T06:58:14.801Z,1.81
2023-01-27T07:00:42.365Z,1.72
2023-01-27T07:05:41.085Z,1.71
2023-01-27T07:08:07.798Z,1.79
2023-01-27T07:10:34.594Z,1.72
2023-01-27T07:13:05.999Z,1.71
2023-01-27T07:15:32.664Z,1.66
2023-01-27T07:18:00.470Z,1.67
2023-01-27T07:20:28.758Z,1.74
2023-01-27T07:22:59.710Z,1.66
2023-01-27T07:25:27.457Z,1.66
2023-01-27T07:27:54.074Z,1.68
2023-01-27T07:30:20.715Z,1.68
2023-01-27T07:32:47.399Z,1.64
2023-01-27T07:35:14.005Z,1.73
2023-01-27T07:37:41.488Z,1.72
2023-01-27T07:40:10.558Z,1.69
2023-01-27T07:42:37.116Z,1.66
2023-01-27T07:45:04.266Z,1.67
2023-01-27T07:47:30.827Z,1.69
2023-01-27T07:49:57.598Z,1.69
2023-01-27T07:52:24.140Z,1.72
2023-01-27T07:54:50.710Z,1.77
2023-01-27T07:57:17.516Z,1.74
2023-01-27T07:59:44.192Z,1.80
2023-01-27T08:02:11.343Z,1.71
2023-01-27T08:04:52.126Z,1.64
2023-01-27T08:07:19.972Z,1.79
2023-01-27T08:09:46.537Z,1.72
2023-01-27T08:12:13.200Z,1.67
2023-01-27T08:14:39.784Z,1.66
2023-01-27T08:17:06.452Z,1.55
2023-01-27T08:19:33.124Z,1.55
2023-01-27T08:21:59.682Z,1.51
2023-01-27T08:24:26.443Z,1.51
2023-01-27T08:26:53.092Z,1.56
2023-01-27T08:29:19.758Z,1.62
2023-01-27T08:31:46.492Z,1.54
2023-01-27T08:34:13.442Z,1.44
2023-01-27T08:36:43.601Z,1.52
2023-01-27T08:39:11.133Z,1.43
2023-01-27T08:41:37.916Z,1.44
2023-01-27T08:44:04.787Z,1.55
2023-01-27T08:46:34.192Z,1.43
2023-01-27T08:49:00.944Z,1.48
2023-01-27T08:51:27.743Z,1.39
2023-01-27T08:53:54.358Z,1.48
2023-01-27T08:56:21.469Z,1.52
2023-01-27T08:58:48.544Z,1.53
2023-01-27T09:01:15.863Z,1.60
2023-01-27T09:03:42.724Z,1.51
2023-01-27T09:06:10.819Z,1.50
2023-01-27T09:08:37.739Z,1.49
2023-01-27T09:11:16.689Z,1.51
2023-01-27T09:13:43.963Z,1.52
2023-01-27T09:16:10.714Z,1.40
2023-01-27T09:18:37.655Z,1.55
2023-01-27T09:21:05.723Z,1.55
2023-01-27T09:23:33.581Z,1.54
2023-01-27T09:26:00.466Z,1.52
2023-01-27T09:28:27.365Z,1.55
2023-01-27T09:30:57.892Z,1.66
2023-01-27T09:33:25.975Z,1.57
2023-01-27T09:36:08.288Z,1.52
2023-01-27T09:38:37.645Z,1.57
2023-01-27T09:41:23.133Z,1.57
2023-01-27T09:43:55.457Z,1.60
2023-01-27T09:46:36.976Z,1.67
2023-01-27T09:49:17.871Z,1.67
2023-01-27T09:51:59.381Z,1.72
2023-01-27T09:54:28.937Z,1.66
2023-01-27T09:57:23.381Z,1.66
2023-01-27T10:00:07.718Z,1.75
2023-01-27T10:02:37.336Z,1.85
2023-01-27T10:05:09.755Z,1.84
2023-01-27T10:08:16.598Z,1.81
2023-01-27T10:10:49.626Z,1.72
2023-01-27T10:13:28.697Z,1.69
2023-01-27T10:15:56.748Z,1.69
2023-01-27T10:18:48.192Z,1.77
2023-01-27T10:21:26.966Z,1.63
2023-01-27T10:24:12.031Z,1.70
2023-01-27T10:26:45.856Z,1.72
2023-01-27T10:29:25.791Z,1.75
2023-01-27T10:32:08.020Z,1.80
2023-01-27T10:34:36.721Z,1.96
2023-01-27T10:37:06.649Z,1.80
2023-01-27T10:39:51.616Z,1.76
2023-01-27T10:42:18.172Z,1.82
2023-01-27T10:45:00.168Z,1.82
2023-01-27T10:47:54.053Z,1.80
2023-01-27T10:50:30.584Z,1.82
2023-01-27T10:53:12.780Z,1.79
2023-01-27T10:56:00.653Z,1.87
2023-01-27T10:58:36.119Z,1.70
2023-01-27T11:01:23.718Z,1.67
2023-01-27T11:03:58.338Z,1.75
2023-01-27T11:06:29.095Z,1.80
2023-01-27T11:09:10.745Z,1.82
2023-01-27T11:11:46.498Z,1.94
2023-01-27T11:14:42.264Z,1.87
2023-01-27T11:17:27.713Z,1.84
2023-01-27T11:20:03.921Z,1.92
2023-01-27T11:22:38.243Z,1.92
2023-01-27T11:25:13.658Z,1.93
2023-01-27T11:28:03.368Z,2.01
2023-01-27T11:30:39.155Z,2.03
2023-01-27T11:33:11.839Z,2.14
2023-01-27T11:35:40.913Z,2.12
2023-01-27T11:38:17.456Z,2.22
2023-01-27T11:40:45.457Z,2.14
2023-01-27T11:43:16.462Z,2.33
2023-01-27T11:45:44.825Z,2.28
2023-01-27T11:48:14.429Z,2.26
2023-01-27T11:50:42.389Z,2.32
2023-01-27T11:53:27.515Z,2.33
2023-01-27T11:56:03.073Z,2.38
2023-01-27T11:58:43.586Z,2.33
2023-01-27T12:01:15.801Z,2.36
2023-01-27T12:04:00.837Z,2.48
2023-01-27T12:06:38.676Z,2.54
2023-01-27T12:09:05.582Z,2.41
2023-01-27T12:11:32.389Z,2.39
2023-01-27T12:14:01.673Z,2.38
2023-01-27T12:16:44.892Z,2.52
2023-01-27T12:19:24.983Z,2.45
2023-01-27T12:21:56.215Z,2.43
2023-01-27T12:24:33.076Z,2.21
2023-01-27T12:27:02.951Z,2.29
2023-01-27T12:29:41.777Z,2.42
2023-01-27T12:32:22.484Z,2.27
2023-01-27T12:34:52.405Z,2.26
2023-01-27T12:37:23.327Z,2.17
2023-01-27T12:39:56.958Z,2.05
2023-01-27T12:42:47.191Z,1.95
2023-01-27T12:45:26.895Z,1.95
2023-01-27T12:48:01.944Z,2.01
2023-01-27T12:50:31.325Z,2.04
2023-01-27T12:53:05.944Z,1.97
2023-01-27T12:55:36.401Z,2.06
2023-01-27T12:58:03.558Z,1.94
2023-01-27T13:00:31.026Z,1.83
2023-01-27T13:03:05.869Z,1.83
2023-01-27T13:05:42.077Z,1.83
2023-01-27T13:08:14.653Z,1.89
2023-01-27T13:10:52.311Z,1.89
2023-01-27T13:13:21.792Z,1.87
2023-01-27T13:15:54.022Z,1.86
2023-01-27T13:18:23.966Z,1.93
2023-01-27T13:20:54.934Z,1.98
2023-01-27T13:23:35.007Z,1.92
2023-01-27T13:26:04.626Z,1.97
2023-01-27T13:28:52.679Z,1.95
2023-01-27T13:31:32.610Z,2.07
2023-01-27T13:33:59.295Z,1.89
2023-01-27T13:36:38.012Z,1.92
2023-01-27T13:39:04.665Z,1.75
2023-01-27T13:41:42.832Z,1.80
2023-01-27T13:44:27.947Z,1.74
2023-01-27T13:46:57.605Z,1.82
2023-01-27T13:49:38.152Z,1.79
2023-01-27T13:52:08.232Z,1.93
2023-01-27T13:54:34.955Z,1.92
2023-01-27T13:57:24.101Z,1.86
2023-01-27T14:00:04.978Z,1.87
2023-01-27T14:03:05.051Z,1.84
2023-01-27T14:05:38.377Z,1.86
2023-01-27T14:08:19.819Z,1.81
2023-01-27T14:11:02.668Z,1.75
2023-01-27T14:13:44.682Z,1.80
2023-01-27T14:16:29.370Z,1.84
2023-01-27T14:19:26.401Z,1.84
2023-01-27T14:22:27.620Z,1.89
2023-01-27T14:25:03.485Z,1.79
2023-01-27T14:27:35.554Z,1.87
2023-01-27T14:30:05.405Z,1.87
2023-01-27T14:32:53.500Z,1.89
2023-01-27T14:35:39.193Z,1.82
2023-01-27T14:38:14.749Z,1.77
2023-01-27T14:41:00.948Z,1.66
2023-01-27T14:43:30.725Z,1.60
2023-01-27T14:46:13.025Z,1.62
2023-01-27T14:48:52.428Z,1.60
2023-01-27T14:51:40.459Z,1.54
2023-01-27T14:54:59.845Z,1.67
2023-01-27T14:57:53.113Z,1.67
2023-01-27T15:00:19.692Z,1.62
2023-01-27T15:03:05.107Z,1.51
2023-01-27T15:06:02.819Z,1.57
2023-01-27T15:08:49.461Z,1.57
2023-01-27T15:11:36.076Z,1.59
2023-01-27T15:14:21.136Z,1.47
2023-01-27T15:17:35.779Z,1.45
2023-01-27T15:20:26.461Z,1.45
2023-01-27T15:23:05.514Z,1.43
2023-01-27T15:25:42.121Z,1.36
2023-01-27T15:28:13.629Z,1.40
2023-01-27T15:30:41.572Z,1.38
2023-01-27T15:33:51.501Z,1.34
2023-01-27T15:36:31.645Z,1.30
2023-01-27T15:39:10.204Z,1.29
2023-01-27T15:41:38.364Z,1.35
2023-01-27T15:44:24.257Z,1.27
2023-01-27T15:46:52.963Z,1.29
2023-01-27T15:49:21.295Z,1.29
2023-01-27T15:51:50.922Z,1.24
2023-01-27T15:54:31.668Z,1.23
2023-01-27T15:57:00.527Z,1.19
2023-01-27T15:59:30.689Z,1.16
2023-01-27T16:02:01.811Z,1.07
2023-01-27T16:04:32.201Z,1.09
2023-01-27T16:07:04.480Z,1.08
2023-01-27T16:09:42.393Z,1.04
2023-01-27T16:12:26.114Z,1.03
2023-01-27T16:15:02.056Z,1.02
2023-01-27T16:17:32.868Z,1.15
2023-01-27T16:20:15.528Z,1.09
2023-01-27T16:22:44.436Z,1.14
2023-01-27T16:25:19.422Z,1.18
2023-01-27T16:28:07.275Z,1.08
2023-01-27T16:30:47.726Z,1.11
2023-01-27T16:33:25.090Z,1.09
2023-01-27T16:35:54.801Z,1.04
2023-01-27T16:38:27.682Z,1.24
2023-01-27T16:41:01.508Z,1.05
2023-01-27T16:43:33.581Z,1.00
2023-01-27T16:46:01.607Z,0.93
2023-01-27T16:48:41.841Z,0.95
2023-01-27T16:51:15.110Z,0.93
2023-01-27T16:53:45.647Z,0.96
2023-01-27T16:56:32.850Z,0.93
2023-01-27T16:59:12.856Z,0.91
2023-01-27T17:01:41.875Z,0.92
2023-01-27T17:04:19.993Z,0.84
2023-01-27T17:06:51.449Z,0.78
2023-01-27T17:09:26.834Z,0.76
2023-01-27T17:11:55.767Z,0.72
2023-01-27T17:14:31.402Z,0.70
2023-01-27T17:17:01.581Z,0.69
2023-01-27T17:19:31.765Z,0.77
2023-01-27T17:21:58.550Z,0.71
2023-01-27T17:24:29.494Z,0.71
2023-01-27T17:27:38.708Z,0.71
2023-01-27T17:30:12.630Z,0.76
2023-01-27T17:32:41.269Z,0.89
2023-01-27T17:35:20.951Z,0.74
2023-01-27T17:37:47.683Z,0.81
2023-01-27T17:40:23.584Z,0.71
2023-01-27T17:42:50.444Z,0.68
2023-01-27T17:45:20.560Z,0.72
2023-01-27T17:47:47.694Z,0.76
2023-01-27T17:50:22.155Z,0.68
2023-01-27T17:52:52.816Z,0.72
2023-01-27T17:55:25.383Z,0.66
2023-01-27T17:58:03.796Z,0.65
2023-01-27T18:00:34.459Z,0.75
2023-01-27T18:03:07.308Z,0.78
2023-01-27T18:05:34.290Z,0.67
2023-01-27T18:08:01.765Z,0.62
2023-01-27T18:10:34.562Z,0.73
2023-01-27T18:13:17.719Z,0.76
2023-01-27T18:16:19.683Z,0.69
2023-01-27T18:18:46.862Z,0.66
2023-01-27T18:21:15.777Z,0.71
2023-01-27T18:23:52.711Z,0.67
2023-01-27T18:26:30.647Z,0.67
2023-01-27T18:29:03.956Z,0.66
2023-01-27T18:31:45.369Z,0.70
2023-01-27T18:34:12.080Z,0.66
2023-01-27T18:36:53.286Z,0.76
2023-01-27T18:39:40.242Z,0.65
2023-01-27T18:42:16.032Z,0.52
2023-01-27T18:44:42.990Z,0.51
2023-01-27T18:47:18.897Z,0.50
2023-01-27T18:49:49.799Z,0.47
2023-01-27T18:52:16.532Z,0.70
2023-01-27T18:54:44.030Z,0.63
2023-01-27T18:57:11.337Z,0.64
2023-01-27T18:59:38.296Z,0.52
2023-01-27T19:02:12.219Z,0.49
2023-01-27T19:04:38.990Z,0.45
2023-01-27T19:07:17.563Z,0.41
2023-01-27T19:09:45.877Z,0.38
2023-01-27T19:12:12.638Z,0.37
2023-01-27T19:14:41.503Z,0.38
2023-01-27T19:17:22.107Z,0.52
2023-01-27T19:19:49.177Z,0.51
2023-01-27T19:22:17.893Z,0.40
2023-01-27T19:24:45.612Z,0.45
2023-01-27T19:27:14.800Z,0.40
2023-01-27T19:29:41.994Z,0.39
2023-01-27T19:32:15.360Z,0.39
2023-01-27T19:34:42.289Z,0.45
2023-01-27T19:37:18.305Z,0.38
2023-01-27T19:39:46.432Z,0.30
2023-01-27T19:42:14.779Z,0.41
2023-01-27T19:44:41.616Z,0.29
2023-01-27T19:47:13.382Z,0.37
2023-01-27T19:49:40.651Z,0.25
2023-01-27T19:52:07.615Z,0.29
2023-01-27T19:54:34.577Z,0.35
2023-01-27T19:57:01.741Z,0.23
2023-01-27T19:59:28.582Z,0.18
2023-01-27T20:01:56.692Z,0.11
2023-01-27T20:04:23.596Z,0.12
2023-01-27T20:06:50.302Z,0.10
2023-01-27T20:09:17.154Z,0.07
2023-01-27T20:11:44.791Z,0.04
2023-01-27T20:14:16.912Z,-0.01
2023-01-27T20:16:43.981Z,0.03
2023-01-27T20:19:15.156Z,0.02
2023-01-27T20:21:43.112Z,-0.06
2023-01-27T20:24:14.898Z,-0.11
2023-01-27T20:26:41.712Z,-0.13
2023-01-27T20:29:08.487Z,-0.14
2023-01-27T20:31:35.439Z,-0.13
2023-01-27T20:34:02.187Z,-0.09
2023-01-27T20:36:29.040Z,-0.04
2023-01-27T20:38:55.975Z,-0.02
2023-01-27T20:41:24.431Z,-0.07
2023-01-27T20:43:56.095Z,-0.15
2023-01-27T20:46:22.791Z,-0.21
2023-01-27T20:48:49.660Z,-0.20
2023-01-27T20:51:19.595Z,-0.11
2023-01-27T20:53:46.711Z,-0.24
2023-01-27T20:56:18.673Z,-0.30
2023-01-27T20:58:54.347Z,-0.32
2023-01-27T21:01:30.225Z,-0.29
2023-01-27T21:03:57.015Z,-0.47
2023-01-27T21:06:23.747Z,-0.38
2023-01-27T21:08:50.454Z,-0.45
2023-01-27T21:11:18.772Z,-0.40
2023-01-27T21:13:45.857Z,-0.22
2023-01-27T21:16:13.050Z,-0.26
2023-01-27T21:18:44.588Z,-0.28
2023-01-27T21:21:28.443Z,-0.09
2023-01-27T21:24:00.483Z,-0.25
2023-01-27T21:26:27.251Z,-0.34
2023-01-27T21:28:53.978Z,-0.35
2023-01-27T21:31:24.419Z,-0.35
2023-01-27T21:33:51.225Z,-0.41
2023-01-27T21:36:18.471Z,-0.50
2023-01-27T21:38:45.362Z,-0.41
2023-01-27T21:41:31.934Z,-0.32
2023-01-27T21:44:17.203Z,-0.26
2023-01-27T21:46:43.866Z,-0.27
2023-01-27T21:49:10.530Z,-0.22
2023-01-27T21:51:37.194Z,-0.21
2023-01-27T21:54:06.669Z,-0.39
2023-01-27T21:56:33.348Z,-0.48
2023-01-27T21:59:01.059Z,-0.50
2023-01-27T22:01:28.996Z,-0.54
2023-01-27T22:03:56.839Z,-0.52
2023-01-27T22:06:23.433Z,-0.51
2023-01-27T22:08:53.508Z,-0.48
2023-01-27T22:11:20.177Z,-0.47
2023-01-27T22:13:47.271Z,-0.57
2023-01-27T22:16:17.610Z,-0.63
2023-01-27T22:18:44.489Z,-0.65
2023-01-27T22:21:13.349Z,-0.54
2023-01-27T22:23:44.876Z,-0.55
2023-01-27T22:26:16.720Z,-0.57
2023-01-27T22:28:44.139Z,-0.61
2023-01-27T22:31:18.085Z,-0.74
2023-01-27T22:33:44.778Z,-0.69
2023-01-27T22:36:12.997Z,-0.66
2023-01-27T22:38:43.906Z,-0.66
2023-01-27T22:41:21.070Z,-0.71
2023-01-27T22:43:50.503Z,-0.69
2023-01-27T22:46:17.867Z,-0.72
2023-01-27T22:48:49.059Z,-0.72
2023-01-27T22:51:15.931Z,-0.71
2023-01-27T22:53:46.209Z,-0.69
2023-01-27T22:56:20.229Z,-0.68
2023-01-27T22:58:46.869Z,-0.65
2023-01-27T23:01:16.576Z,-0.67
2023-01-27T23:03:50.772Z,-0.65
2023-01-27T23:06:17.519Z,-0.65
2023-01-27T23:08:47.362Z,-0.65
2023-01-27T23:11:19.662Z,-0.69
2023-01-27T23:13:46.291Z,-0.63
2023-01-27T23:16:15.389Z,-0.62
2023-01-27T23:18:50.472Z,-0.69
2023-01-27T23:21:17.113Z,-0.72
2023-01-27T23:23:46.458Z,-0.72
2023-01-27T23:26:24.522Z,-0.67
2023-01-27T23:28:51.235Z,-0.68
2023-01-27T23:31:18.085Z,-0.56
2023-01-27T23:33:55.492Z,-0.53
2023-01-27T23:36:23.207Z,-0.49
2023-01-27T23:38:49.855Z,-0.57
2023-01-27T23:41:21.702Z,-0.51
2023-01-27T23:43:58.149Z,-0.43
2023-01-27T23:46:25.506Z,-0.38
2023-01-27T23:48:55.436Z,-0.49
2023-01-27T23:51:22.941Z,-0.60
2023-01-27T23:53:49.896Z,-0.71
2023-01-27T23:56:21.172Z,-0.76
2023-01-27T23:58:50.062Z,-0.75
